sensor_id;sensor_type;location;lat;lon;timestamp;pressure;altitude;pressure_sealevel;temperature;humidity
3506;BME280;11593;42.226;24.726;2024-02-04T18:05:21;73802.59;;;24.03;58.56
3506;BME280;11593;42.226;24.726;2024-02-04T18:05:54;73770.91;;;23.77;58.50
3506;BME280;11593;42.226;24.726;2024-02-04T18:06:26;73744.88;;;23.55;58.80
3506;BME280;11593;42.226;24.726;2024-02-04T18:06:57;73726.19;;;23.36;59.14
3506;BME280;11593;42.226;24.726;2024-02-04T18:07:31;73706.69;;;23.21;59.56
3506;BME280;11593;42.226;24.726;2024-02-04T18:08:04;73689.91;;;23.06;59.90
3506;BME280;11593;42.226;24.726;2024-02-04T18:08:35;73695.69;;;23.11;60.02
3506;BME280;11593;42.226;24.726;2024-02-04T18:09:08;73689.16;;;23.03;60.00
3506;BME280;11593;42.226;24.726;2024-02-04T18:09:40;73680.66;;;22.98;60.00
3506;BME280;11593;42.226;24.726;2024-02-04T18:10:15;73670.38;;;22.92;60.41
3506;BME280;11593;42.226;24.726;2024-02-04T18:10:46;73664.59;;;22.86;60.52
3506;BME280;11593;42.226;24.726;2024-02-04T18:11:18;73660.97;;;22.81;60.53
3506;BME280;11593;42.226;24.726;2024-02-04T18:11:52;73654.75;;;22.78;60.85
3506;BME280;11593;42.226;24.726;2024-02-04T18:12:23;73654.00;;;22.75;60.74
3506;BME280;11593;42.226;24.726;2024-02-04T18:12:54;73655.59;;;22.74;60.69
3506;BME280;11593;42.226;24.726;2024-02-04T18:13:25;73658.47;;;22.76;60.72
3506;BME280;11593;42.226;24.726;2024-02-04T18:13:57;73660.22;;;22.78;60.88
3506;BME280;11593;42.226;24.726;2024-02-04T18:14:29;73655.75;;;22.76;60.64
3506;BME280;11593;42.226;24.726;2024-02-04T18:15:01;73654.00;;;22.75;60.93
3506;BME280;11593;42.226;24.726;2024-02-04T18:15:32;73654.00;;;22.75;60.66
3506;BME280;11593;42.226;24.726;2024-02-04T18:16:07;73654.44;;;22.73;60.67
3506;BME280;11593;42.226;24.726;2024-02-04T18:16:40;73652.13;;;22.71;59.65
3506;BME280;11593;42.226;24.726;2024-02-04T18:17:11;73647.06;;;22.69;59.17
3506;BME280;11593;42.226;24.726;2024-02-04T18:17:46;73643.75;;;22.68;58.04
3506;BME280;11593;42.226;24.726;2024-02-04T18:18:20;73644.75;;;22.67;57.82
3506;BME280;11593;42.226;24.726;2024-02-04T18:18:51;73640.28;;;22.65;58.08
3506;BME280;11593;42.226;24.726;2024-02-04T18:19:26;73648.81;;;22.70;58.06
3506;BME280;11593;42.226;24.726;2024-02-04T18:19:57;73651.13;;;22.72;58.33
3506;BME280;11593;42.226;24.726;2024-02-04T18:20:33;73650.97;;;22.70;58.39
3506;BME280;11593;42.226;24.726;2024-02-04T18:21:05;73648.22;;;22.70;58.80
3506;BME280;11593;42.226;24.726;2024-02-04T18:21:36;73646.66;;;22.71;59.13
3506;BME280;11593;42.226;24.726;2024-02-04T18:22:07;73657.75;;;22.73;59.30
3506;BME280;11593;42.226;24.726;2024-02-04T18:22:40;73651.28;;;22.75;59.58
3506;BME280;11593;42.226;24.726;2024-02-04T18:23:11;73652.84;;;22.74;59.86
3506;BME280;11593;42.226;24.726;2024-02-04T18:23:42;73654.44;;;22.73;60.98
3506;BME280;11593;42.226;24.726;2024-02-04T18:24:13;73650.53;;;22.72;60.96
3506;BME280;11593;42.226;24.726;2024-02-04T23:57:14;99662.34;;;29.07;36.20
3506;BME280;11593;42.226;24.726;2024-02-04T23:57:46;99649.28;;;27.49;37.91
3506;BME280;11593;42.226;24.726;2024-02-04T23:58:17;99655.69;;;26.40;39.71
3506;BME280;11593;42.226;24.726;2024-02-04T23:58:48;99653.47;;;25.70;41.26
3506;BME280;11593;42.226;24.726;2024-02-04T23:59:19;99662.69;;;25.17;41.77
3506;BME280;11593;42.226;24.726;2024-02-04T23:59:51;99648.47;;;24.78;42.62
